createdAt,value
2022-10-01T00:02:08.334Z,99517.00
2022-10-01T00:04:37.615Z,99518.00
2022-10-01T00:07:09.646Z,99512.00
2022-10-01T00:09:37.169Z,99512.00
2022-10-01T00:12:04.707Z,99516.00
2022-10-01T00:14:32.381Z,99513.00
2022-10-01T00:16:59.858Z,99508.00
2022-10-01T00:19:27.647Z,99509.00
2022-10-01T00:21:55.033Z,99513.00
2022-10-01T00:24:22.733Z,99508.00
2022-10-01T00:26:50.391Z,99504.00
2022-10-01T00:29:17.752Z,99505.00
2022-10-01T00:31:45.194Z,99493.00
2022-10-01T00:34:15.714Z,99500.00
2022-10-01T00:36:43.123Z,99500.00
2022-10-01T00:39:12.683Z,99486.00
2022-10-01T00:41:40.904Z,99488.00
2022-10-01T00:44:33.892Z,99487.00
2022-10-01T00:47:30.454Z,99474.00
2022-10-01T00:50:22.094Z,99476.00
2022-10-01T00:53:03.125Z,99474.00
2022-10-01T00:55:40.916Z,99469.00
2022-10-01T00:58:14.091Z,99457.00
2022-10-01T01:00:43.599Z,99461.00
2022-10-01T01:03:11.715Z,99460.00
2022-10-01T01:05:39.758Z,99454.00
2022-10-01T01:08:08.966Z,99450.00
2022-10-01T01:10:53.418Z,99446.00
2022-10-01T01:13:38.199Z,99448.00
2022-10-01T01:16:13.054Z,99443.00
2022-10-01T01:18:58.317Z,99444.00
2022-10-01T01:21:31.159Z,99436.00
2022-10-01T01:24:50.468Z,99420.00
2022-10-01T01:27:29.692Z,99427.00
2022-10-01T01:30:09.407Z,99421.00
2022-10-01T01:33:03.392Z,99425.00
2022-10-01T01:35:52.404Z,99425.00
2022-10-01T01:38:28.287Z,99416.00
2022-10-01T01:41:01.238Z,99423.00
2022-10-01T01:43:38.991Z,99417.00
2022-10-01T01:46:10.504Z,99412.00
2022-10-01T01:48:41.914Z,99409.00
2022-10-01T01:51:24.107Z,99408.00
2022-10-01T01:53:51.847Z,99403.00
2022-10-01T01:56:19.310Z,99402.00
2022-10-01T01:58:47.973Z,99397.00
2022-10-01T02:01:40.453Z,99399.00
2022-10-01T02:04:27.207Z,99393.00
2022-10-01T02:07:20.404Z,99392.00
2022-10-01T02:09:59.313Z,99379.00
2022-10-01T02:12:55.218Z,99378.00
2022-10-01T02:15:37.149Z,99375.00
2022-10-01T02:18:16.741Z,99367.00
2022-10-01T02:20:54.597Z,99365.00
2022-10-01T02:23:31.659Z,99356.00
2022-10-01T02:26:04.382Z,99359.00
2022-10-01T02:28:36.080Z,99362.00
2022-10-01T02:31:04.673Z,99354.00
2022-10-01T02:33:35.764Z,99351.00
2022-10-01T02:36:06.857Z,99352.00
2022-10-01T02:38:37.033Z,99356.00
2022-10-01T02:41:08.390Z,99354.00
2022-10-01T02:44:02.781Z,99337.00
2022-10-01T02:46:48.972Z,99341.00
2022-10-01T02:49:16.804Z,99351.00
2022-10-01T02:51:59.876Z,99350.00
2022-10-01T02:54:42.343Z,99346.00
2022-10-01T02:57:27.100Z,99342.00
2022-10-01T03:00:00.220Z,99336.00
2022-10-01T03:02:29.541Z,99332.00
2022-10-01T03:04:57.994Z,99328.00
2022-10-01T03:07:31.775Z,99331.00
2022-10-01T03:09:59.266Z,99317.00
2022-10-01T03:12:26.863Z,99318.00
2022-10-01T03:14:54.421Z,99321.00
2022-10-01T03:17:23.334Z,99306.00
2022-10-01T03:19:50.745Z,99297.00
2022-10-01T03:22:22.832Z,99291.00
2022-10-01T03:24:54.082Z,99289.00
2022-10-01T03:27:22.655Z,99288.00
2022-10-01T03:29:50.559Z,99274.00
2022-10-01T03:32:18.848Z,99272.00
2022-10-01T03:34:48.145Z,99255.00
2022-10-01T03:37:15.615Z,99256.00
2022-10-01T03:39:43.027Z,99260.00
2022-10-01T03:42:10.527Z,99254.00
2022-10-01T03:44:37.914Z,99250.00
2022-10-01T03:47:05.397Z,99257.00
2022-10-01T03:49:34.016Z,99246.00
2022-10-01T03:52:02.615Z,99248.00
2022-10-01T03:54:31.497Z,99248.00
2022-10-01T03:56:59.345Z,99238.00
2022-10-01T03:59:29.941Z,99240.00
2022-10-01T04:01:57.252Z,99228.00
2022-10-01T04:04:24.629Z,99238.00
2022-10-01T04:06:52.144Z,99235.00
2022-10-01T04:09:19.493Z,99237.00
2022-10-01T04:11:46.892Z,99232.00
2022-10-01T04:14:14.416Z,99242.00
2022-10-01T04:16:41.808Z,99225.00
2022-10-01T04:19:09.204Z,99235.00
2022-10-01T04:21:37.154Z,99226.00
2022-10-01T04:24:05.414Z,99235.00
2022-10-01T04:26:32.995Z,99230.00
2022-10-01T04:29:00.421Z,99224.00
2022-10-01T04:31:35.483Z,99225.00
2022-10-01T04:34:03.510Z,99217.00
2022-10-01T04:36:31.261Z,99215.00
2022-10-01T04:39:03.017Z,99213.00
2022-10-01T04:41:33.963Z,99212.00
2022-10-01T04:44:01.796Z,99217.00
2022-10-01T04:46:30.551Z,99218.00
2022-10-01T04:48:58.389Z,99205.00
2022-10-01T04:51:26.196Z,99214.00
2022-10-01T04:53:53.937Z,99205.00
2022-10-01T04:56:21.310Z,99205.00
2022-10-01T04:58:49.356Z,99196.00
2022-10-01T05:01:16.803Z,99193.00
2022-10-01T05:03:44.067Z,99196.00
2022-10-01T05:06:11.476Z,99188.00
2022-10-01T05:08:39.360Z,99186.00
2022-10-01T05:11:07.156Z,99183.00
2022-10-01T05:13:34.634Z,99193.00
2022-10-01T05:16:03.917Z,99182.00
2022-10-01T05:18:32.000Z,99175.00
2022-10-01T05:20:59.559Z,99173.00
2022-10-01T05:23:26.969Z,99179.00
2022-10-01T05:25:54.434Z,99166.00
2022-10-01T05:28:22.806Z,99179.00
2022-10-01T05:30:51.367Z,99169.00
2022-10-01T05:33:18.832Z,99162.00
2022-10-01T05:35:46.334Z,99159.00
2022-10-01T05:38:13.739Z,99147.00
2022-10-01T05:40:46.635Z,99134.00
2022-10-01T05:43:15.018Z,99134.00
2022-10-01T05:45:43.278Z,99131.00
2022-10-01T05:48:11.190Z,99120.00
2022-10-01T05:50:40.784Z,99115.00
2022-10-01T05:53:10.481Z,99109.00
2022-10-01T05:55:37.951Z,99102.00
2022-10-01T05:58:10.626Z,99103.00
2022-10-01T06:00:40.665Z,99101.00
2022-10-01T06:03:08.855Z,99097.00
2022-10-01T06:05:37.012Z,99095.00
2022-10-01T06:08:09.909Z,99092.00
2022-10-01T06:10:38.345Z,99090.00
2022-10-01T06:13:06.503Z,99081.00
2022-10-01T06:15:39.269Z,99081.00
2022-10-01T06:18:12.517Z,99075.00
2022-10-01T06:20:41.306Z,99070.00
2022-10-01T06:23:12.390Z,99061.00
2022-10-01T06:25:44.016Z,99057.00
2022-10-01T06:28:14.903Z,99047.00
2022-10-01T06:30:42.791Z,99035.00
2022-10-01T06:33:14.604Z,99044.00
2022-10-01T06:35:48.177Z,99036.00
2022-10-01T06:38:17.814Z,99031.00
2022-10-01T06:40:45.104Z,99024.00
2022-10-01T06:43:12.451Z,99027.00
2022-10-01T06:45:42.774Z,99018.00
2022-10-01T06:48:15.303Z,99020.00
2022-10-01T06:50:45.041Z,99021.00
2022-10-01T06:53:15.434Z,99019.00
2022-10-01T06:55:43.171Z,99017.00
2022-10-01T06:58:29.244Z,99014.00
2022-10-01T07:01:02.225Z,99018.00
2022-10-01T07:03:31.405Z,99016.00
2022-10-01T07:06:08.135Z,99016.00
2022-10-01T07:08:35.668Z,99010.00
2022-10-01T07:11:05.260Z,99003.00
2022-10-01T07:13:32.577Z,99003.00
2022-10-01T07:16:00.144Z,99001.00
2022-10-01T07:18:27.571Z,98992.00
2022-10-01T07:20:57.861Z,98998.00
2022-10-01T07:23:25.343Z,98993.00
2022-10-01T07:25:53.051Z,98989.00
2022-10-01T07:28:24.102Z,98986.00
2022-10-01T07:31:01.656Z,98987.00
2022-10-01T07:33:29.697Z,98982.00
2022-10-01T07:36:02.623Z,98984.00
2022-10-01T07:38:30.885Z,98982.00
2022-10-01T07:40:59.208Z,98981.00
2022-10-01T07:43:26.816Z,98979.00
2022-10-01T07:45:58.347Z,98981.00
2022-10-01T07:48:27.651Z,98973.00
2022-10-01T07:50:55.472Z,98981.00
2022-10-01T07:53:25.170Z,98974.00
2022-10-01T07:55:52.839Z,98976.00
2022-10-01T07:58:24.346Z,98964.00
2022-10-01T08:00:56.303Z,98964.00
2022-10-01T08:03:24.298Z,98959.00
2022-10-01T08:05:53.855Z,98967.00
2022-10-01T08:08:21.400Z,98962.00
2022-10-01T08:10:51.129Z,98966.00
2022-10-01T08:13:19.005Z,98956.00
2022-10-01T08:15:53.497Z,98957.00
2022-10-01T08:18:22.681Z,98958.00
2022-10-01T08:20:50.516Z,98958.00
2022-10-01T08:23:18.097Z,98961.00
2022-10-01T08:25:47.974Z,98958.00
2022-10-01T08:28:16.574Z,98954.00
2022-10-01T08:30:44.454Z,98952.00
2022-10-01T08:33:13.361Z,98948.00
2022-10-01T08:35:42.104Z,98941.00
2022-10-01T08:38:11.192Z,98939.00
2022-10-01T08:40:48.864Z,98931.00
2022-10-01T08:43:39.060Z,98935.00
2022-10-01T08:46:14.538Z,98935.00
2022-10-01T08:49:10.599Z,98933.00
2022-10-01T08:52:06.786Z,98926.00
2022-10-01T08:54:46.803Z,98928.00
2022-10-01T08:57:18.766Z,98934.00
2022-10-01T08:59:50.227Z,98930.00
2022-10-01T09:02:35.979Z,98923.00
2022-10-01T09:05:22.553Z,98926.00
2022-10-01T09:08:15.441Z,98916.00
2022-10-01T09:11:32.037Z,98918.00
2022-10-01T09:14:25.491Z,98910.00
2022-10-01T09:17:26.200Z,98920.00
2022-10-01T09:20:15.370Z,98916.00
2022-10-01T09:23:06.111Z,98924.00
2022-10-01T09:25:36.352Z,98921.00
2022-10-01T09:28:16.039Z,98915.00
2022-10-01T09:31:21.795Z,98917.00
2022-10-01T09:34:06.828Z,98919.00
2022-10-01T09:37:07.104Z,98919.00
2022-10-01T09:40:05.240Z,98910.00
2022-10-01T09:42:33.121Z,98906.00
2022-10-01T09:45:00.702Z,98905.00
2022-10-01T09:47:28.372Z,98909.00
2022-10-01T09:49:57.290Z,98904.00
2022-10-01T09:52:35.260Z,98912.00
2022-10-01T09:55:30.595Z,98905.00
2022-10-01T09:58:09.878Z,98907.00
2022-10-01T10:00:40.465Z,98913.00
2022-10-01T10:03:08.424Z,98918.00
2022-10-01T10:05:51.230Z,98922.00
2022-10-01T10:08:40.342Z,98925.00
2022-10-01T10:11:11.731Z,98915.00
2022-10-01T10:13:51.968Z,98912.00
2022-10-01T10:16:37.992Z,98921.00
2022-10-01T10:19:17.819Z,98914.00
2022-10-01T10:22:00.853Z,98922.00
2022-10-01T10:24:34.688Z,98920.00
2022-10-01T10:27:18.540Z,98924.00
2022-10-01T10:29:46.982Z,98929.00
2022-10-01T10:32:27.078Z,98923.00
2022-10-01T10:35:04.559Z,98941.00
2022-10-01T10:37:37.679Z,98945.00
2022-10-01T10:40:11.019Z,98950.00
2022-10-01T10:42:39.150Z,98952.00
2022-10-01T10:45:20.697Z,98955.00
2022-10-01T10:47:52.232Z,98964.00
2022-10-01T10:50:36.297Z,98958.00
2022-10-01T10:53:45.973Z,98965.00
2022-10-01T10:56:23.747Z,98957.00
2022-10-01T10:58:53.944Z,98954.00
2022-10-01T11:01:30.232Z,98968.00
2022-10-01T11:04:00.749Z,98968.00
2022-10-01T11:06:30.666Z,98961.00
2022-10-01T11:09:08.047Z,98966.00
2022-10-01T11:11:56.912Z,98977.00
2022-10-01T11:14:59.734Z,98964.00
2022-10-01T11:17:55.482Z,98962.00
2022-10-01T11:20:37.128Z,98964.00
2022-10-01T11:23:16.246Z,98968.00
2022-10-01T11:26:21.348Z,98961.00
2022-10-01T11:29:12.175Z,98964.00
2022-10-01T11:32:34.227Z,98952.00
2022-10-01T11:35:43.515Z,98963.00
2022-10-01T11:38:32.781Z,98963.00
2022-10-01T11:41:25.292Z,98956.00
2022-10-01T11:44:04.832Z,98956.00
2022-10-01T11:47:23.366Z,98952.00
2022-10-01T11:50:16.459Z,98948.00
2022-10-01T11:52:52.978Z,98956.00
2022-10-01T11:55:59.591Z,98950.00
2022-10-01T11:58:54.224Z,98960.00
2022-10-01T12:01:36.406Z,98952.00
2022-10-01T12:04:28.122Z,98951.00
2022-10-01T12:07:16.932Z,98947.00
2022-10-01T12:10:18.666Z,98948.00
2022-10-01T12:13:05.360Z,98955.00
2022-10-01T12:16:02.453Z,98954.00
2022-10-01T12:19:01.276Z,98959.00
2022-10-01T12:21:46.395Z,98965.00
2022-10-01T12:24:44.717Z,98973.00
2022-10-01T12:27:44.181Z,98976.00
2022-10-01T12:30:24.870Z,98969.00
2022-10-01T12:33:20.511Z,98974.00
2022-10-01T12:36:26.172Z,98979.00
2022-10-01T12:39:16.835Z,98979.00
2022-10-01T12:42:03.344Z,98993.00
2022-10-01T12:45:01.888Z,98991.00
2022-10-01T12:48:20.259Z,98985.00
2022-10-01T12:51:18.474Z,98991.00
2022-10-01T12:54:31.232Z,98990.00
2022-10-01T12:57:08.035Z,98987.00
2022-10-01T12:59:53.521Z,98990.00
2022-10-01T13:02:57.445Z,98988.00
2022-10-01T13:05:57.507Z,98988.00
2022-10-01T13:08:46.455Z,98991.00
2022-10-01T13:11:46.107Z,98990.00
2022-10-01T13:14:18.326Z,98995.00
2022-10-01T13:17:17.478Z,99004.00
2022-10-01T13:20:30.529Z,98994.00
2022-10-01T13:23:27.692Z,99002.00
2022-10-01T13:26:19.385Z,99006.00
2022-10-01T13:29:26.196Z,99010.00
2022-10-01T13:32:01.119Z,99004.00
2022-10-01T13:34:41.105Z,99006.00
2022-10-01T13:37:17.661Z,99006.00
2022-10-01T13:39:47.201Z,99012.00
2022-10-01T13:42:28.440Z,99010.00
2022-10-01T13:45:06.156Z,99013.00
2022-10-01T13:47:39.978Z,99018.00
2022-10-01T13:50:26.703Z,99026.00
2022-10-01T13:53:15.407Z,99026.00
2022-10-01T13:55:45.770Z,99031.00
2022-10-01T13:58:44.114Z,99027.00
2022-10-01T14:01:23.536Z,99024.00
2022-10-01T14:04:18.733Z,99026.00
2022-10-01T14:07:16.367Z,99034.00
2022-10-01T14:09:47.682Z,99026.00
2022-10-01T14:12:41.627Z,99024.00
2022-10-01T14:16:00.721Z,99026.00
2022-10-01T14:18:38.606Z,99028.00
2022-10-01T14:21:33.916Z,99018.00
2022-10-01T14:24:31.977Z,99023.00
2022-10-01T14:27:18.006Z,99024.00
2022-10-01T14:30:20.100Z,99029.00
2022-10-01T14:33:17.991Z,99028.00
2022-10-01T14:36:50.068Z,99023.00
2022-10-01T14:39:21.782Z,99035.00
2022-10-01T14:41:52.687Z,99029.00
2022-10-01T14:44:28.780Z,99034.00
2022-10-01T14:46:59.148Z,99037.00
2022-10-01T14:49:31.748Z,99030.00
2022-10-01T14:52:14.378Z,99031.00
2022-10-01T14:54:57.115Z,99032.00
2022-10-01T14:57:40.769Z,99025.00
2022-10-01T15:00:15.972Z,99036.00
2022-10-01T15:02:49.549Z,99028.00
2022-10-01T15:05:33.248Z,99038.00
2022-10-01T15:08:36.177Z,99157.00
2022-10-01T15:11:08.051Z,99156.00
2022-10-01T15:13:41.951Z,99158.00
2022-10-01T15:16:19.957Z,99152.00
2022-10-01T15:19:05.431Z,99160.00
2022-10-01T15:21:38.048Z,99161.00
2022-10-01T15:24:14.913Z,99161.00
2022-10-01T15:26:43.582Z,99163.00
2022-10-01T15:29:17.378Z,99169.00
2022-10-01T15:31:47.661Z,99167.00
2022-10-01T15:34:18.599Z,99159.00
2022-10-01T15:36:48.357Z,99147.00
2022-10-01T15:39:38.823Z,99152.00
2022-10-01T15:42:09.657Z,99154.00
2022-10-01T15:44:38.545Z,99158.00
2022-10-01T15:47:33.521Z,99147.00
2022-10-01T15:50:13.241Z,99160.00
2022-10-01T15:53:03.380Z,99137.00
2022-10-01T15:55:39.144Z,99152.00
2022-10-01T15:58:27.667Z,99156.00
2022-10-01T16:01:10.623Z,99168.00
2022-10-01T16:03:51.334Z,99171.00
2022-10-01T16:06:24.269Z,99180.00
2022-10-01T16:09:12.567Z,99180.00
2022-10-01T16:12:04.549Z,99192.00
2022-10-01T16:15:06.453Z,99194.00
2022-10-01T16:17:39.815Z,99200.00
2022-10-01T16:20:16.028Z,99200.00
2022-10-01T16:22:44.046Z,99207.00
2022-10-01T16:25:23.939Z,99205.00
2022-10-01T16:28:04.543Z,99210.00
2022-10-01T16:30:34.204Z,99214.00
2022-10-01T16:33:04.851Z,99212.00
2022-10-01T16:35:36.147Z,99220.00
2022-10-01T16:38:08.566Z,99233.00
2022-10-01T16:40:43.013Z,99238.00
2022-10-01T16:43:24.482Z,99247.00
2022-10-01T16:45:52.010Z,99248.00
2022-10-01T16:48:25.120Z,99251.00
2022-10-01T16:50:59.216Z,99264.00
2022-10-01T16:53:27.512Z,99273.00
2022-10-01T16:55:56.465Z,99283.00
2022-10-01T16:58:24.708Z,99282.00
2022-10-01T17:00:52.379Z,99293.00
2022-10-01T17:03:22.550Z,99306.00
2022-10-01T17:05:50.219Z,99300.00
2022-10-01T17:08:17.566Z,99308.00
2022-10-01T17:10:58.014Z,99315.00
2022-10-01T17:13:28.074Z,99322.00
2022-10-01T17:15:55.803Z,99321.00
2022-10-01T17:18:23.377Z,99328.00
2022-10-01T17:20:50.946Z,99337.00
2022-10-01T17:23:22.353Z,99334.00
2022-10-01T17:25:50.037Z,99345.00
2022-10-01T17:28:20.474Z,99336.00
2022-10-01T17:30:49.534Z,99340.00
2022-10-01T17:33:19.613Z,99350.00
2022-10-01T17:35:54.869Z,99344.00
2022-10-01T17:38:23.233Z,99354.00
2022-10-01T17:40:56.458Z,99359.00
2022-10-01T17:43:24.623Z,99361.00
2022-10-01T17:46:01.711Z,99372.00
2022-10-01T17:48:30.308Z,99373.00
2022-10-01T17:51:06.689Z,99381.00
2022-10-01T17:53:42.210Z,99380.00
2022-10-01T17:56:17.177Z,99383.00
2022-10-01T17:58:46.223Z,99379.00
2022-10-01T18:01:20.291Z,99394.00
2022-10-01T18:03:48.452Z,99391.00
2022-10-01T18:06:16.380Z,99396.00
2022-10-01T18:08:55.057Z,99399.00
2022-10-01T18:11:27.313Z,99396.00
2022-10-01T18:13:54.970Z,99411.00
2022-10-01T18:16:23.198Z,99411.00
2022-10-01T18:21:51.240Z,99431.00
2022-10-01T18:24:18.747Z,99430.00
2022-10-01T18:26:46.290Z,99438.00
2022-10-01T18:29:23.142Z,99446.00
2022-10-01T18:32:01.737Z,99442.00
2022-10-01T18:34:45.362Z,99451.00
2022-10-01T18:37:50.411Z,99459.00
2022-10-01T18:40:33.265Z,99463.00
2022-10-01T18:43:09.228Z,99460.00
2022-10-01T18:46:01.923Z,99468.00
2022-10-01T18:48:45.915Z,99476.00
2022-10-01T18:51:27.865Z,99482.00
2022-10-01T18:54:07.079Z,99482.00
2022-10-01T18:56:40.933Z,99486.00
2022-10-01T18:59:28.049Z,99492.00
2022-10-01T19:02:38.401Z,99500.00
2022-10-01T19:06:00.743Z,99509.00
2022-10-01T19:08:36.809Z,99514.00
2022-10-01T19:11:38.279Z,99517.00
2022-10-01T19:14:29.548Z,99519.00
2022-10-01T19:17:42.670Z,99520.00
2022-10-01T19:20:28.253Z,99524.00
2022-10-01T19:23:45.188Z,99532.00
2022-10-01T19:26:40.422Z,99538.00
2022-10-01T19:29:31.663Z,99532.00
2022-10-01T19:32:09.676Z,99542.00
2022-10-01T19:35:20.344Z,99550.00
2022-10-01T19:38:02.448Z,99563.00
2022-10-01T19:40:43.596Z,99569.00
2022-10-01T19:43:28.665Z,99570.00
2022-10-01T19:46:16.704Z,99581.00
2022-10-01T19:49:01.116Z,99584.00
2022-10-01T19:51:35.637Z,99584.00
2022-10-01T19:54:04.026Z,99582.00
2022-10-01T19:56:34.976Z,99587.00
2022-10-01T19:59:11.504Z,99586.00
2022-10-01T20:01:52.948Z,99593.00
2022-10-01T20:04:45.953Z,99602.00
2022-10-01T20:07:30.827Z,99597.00
2022-10-01T20:10:20.941Z,99609.00
2022-10-01T20:13:34.587Z,99611.00
2022-10-01T20:16:30.915Z,99624.00
2022-10-01T20:19:41.577Z,99618.00
2022-10-01T20:22:44.533Z,99625.00
2022-10-01T20:25:58.164Z,99631.00
2022-10-01T20:28:36.525Z,99629.00
2022-10-01T20:31:16.666Z,99633.00
2022-10-01T20:34:24.808Z,99640.00
2022-10-01T20:37:08.556Z,99643.00
2022-10-01T20:39:46.402Z,99650.00
2022-10-01T20:42:26.073Z,99647.00
2022-10-01T20:44:54.309Z,99647.00
2022-10-01T20:47:31.642Z,99652.00
2022-10-01T20:50:15.496Z,99664.00
2022-10-01T20:53:04.286Z,99663.00
2022-10-01T20:55:50.998Z,99673.00
2022-10-01T20:58:33.618Z,99679.00
2022-10-01T21:01:15.870Z,99674.00
2022-10-01T21:03:48.413Z,99685.00
2022-10-01T21:06:33.567Z,99691.00
2022-10-01T21:09:26.502Z,99687.00
2022-10-01T21:12:05.725Z,99695.00
2022-10-01T21:14:46.868Z,99699.00
2022-10-01T21:17:38.754Z,99704.00
2022-10-01T21:20:48.330Z,99705.00
2022-10-01T21:23:53.584Z,99712.00
2022-10-01T21:26:55.745Z,99725.00
2022-10-01T21:29:41.314Z,99728.00
2022-10-01T21:32:33.839Z,99732.00
2022-10-01T21:35:44.279Z,99733.00
2022-10-01T21:38:49.401Z,99739.00
2022-10-01T21:41:56.420Z,99739.00
2022-10-01T21:45:00.298Z,99742.00
2022-10-01T21:48:03.517Z,99752.00
2022-10-01T21:50:50.749Z,99748.00
2022-10-01T21:53:34.462Z,99752.00
2022-10-01T21:56:49.954Z,99755.00
2022-10-01T21:59:34.292Z,99760.00
2022-10-01T22:02:26.954Z,99760.00
2022-10-01T22:05:09.629Z,99759.00
2022-10-01T22:08:15.828Z,99750.00
2022-10-01T22:10:50.392Z,99753.00
2022-10-01T22:13:25.940Z,99760.00
2022-10-01T22:15:59.644Z,99760.00
2022-10-01T22:18:45.839Z,99764.00
2022-10-01T22:21:23.106Z,99769.00
2022-10-01T22:24:02.098Z,99772.00
2022-10-01T22:26:34.922Z,99778.00
2022-10-01T22:29:04.915Z,99781.00
2022-10-01T22:31:35.986Z,99782.00
2022-10-01T22:34:13.760Z,99788.00
2022-10-01T22:36:54.112Z,99793.00
2022-10-01T22:39:36.044Z,99790.00
2022-10-01T22:42:27.192Z,99800.00
2022-10-01T22:44:56.186Z,99797.00
2022-10-01T22:47:54.966Z,99802.00
2022-10-01T22:51:18.000Z,99805.00
2022-10-01T22:54:55.110Z,99798.00
2022-10-01T22:57:51.633Z,99802.00
2022-10-01T23:00:21.454Z,99801.00
2022-10-01T23:03:15.956Z,99800.00
2022-10-01T23:06:08.023Z,99804.00
2022-10-01T23:09:06.494Z,99806.00
2022-10-01T23:11:49.182Z,99806.00
2022-10-01T23:14:36.695Z,99808.00
2022-10-01T23:17:16.751Z,99811.00
2022-10-01T23:20:29.827Z,99808.00
2022-10-01T23:23:19.787Z,99822.00
2022-10-01T23:26:22.465Z,99825.00
2022-10-01T23:29:19.378Z,99826.00
2022-10-01T23:32:09.645Z,99831.00
2022-10-01T23:35:13.260Z,99836.00
2022-10-01T23:38:06.660Z,99831.00
2022-10-01T23:40:41.660Z,99833.00
2022-10-01T23:43:31.998Z,99842.00
2022-10-01T23:46:16.096Z,99840.00
2022-10-01T23:49:14.682Z,99844.00
2022-10-01T23:52:15.724Z,99846.00
2022-10-01T23:54:50.838Z,99851.00
2022-10-01T23:57:31.758Z,99849.00
